sensor_id;sensor_type;location;lat;lon;timestamp;temperature;humidity
26621;DHT22;14253;44.840;10.444;2023-02-25T00:01:27;10.40;99.90
26621;DHT22;14253;44.840;10.444;2023-02-25T00:03:54;10.40;99.90
26621;DHT22;14253;44.840;10.444;2023-02-25T00:06:21;10.40;99.90
26621;DHT22;14253;44.840;10.444;2023-02-25T00:08:48;10.50;99.90
26621;DHT22;14253;44.840;10.444;2023-02-25T00:11:15;10.60;99.90
26621;DHT22;14253;44.840;10.444;2023-02-25T00:13:43;10.60;99.90
26621;DHT22;14253;44.840;10.444;2023-02-25T00:16:10;10.50;99.90
26621;DHT22;14253;44.840;10.444;2023-02-25T00:18:36;10.50;99.90
26621;DHT22;14253;44.840;10.444;2023-02-25T00:21:06;10.50;99.90
26621;DHT22;14253;44.840;10.444;2023-02-25T00:23:34;10.50;99.90
26621;DHT22;14253;44.840;10.444;2023-02-25T00:26:02;10.50;99.90
26621;DHT22;14253;44.840;10.444;2023-02-25T00:28:28;10.50;99.90
26621;DHT22;14253;44.840;10.444;2023-02-25T00:30:54;10.50;99.90
26621;DHT22;14253;44.840;10.444;2023-02-25T00:33:20;10.50;99.90
26621;DHT22;14253;44.840;10.444;2023-02-25T00:35:46;10.50;99.90
26621;DHT22;14253;44.840;10.444;2023-02-25T00:38:16;10.40;99.90
26621;DHT22;14253;44.840;10.444;2023-02-25T00:40:45;10.30;99.90
26621;DHT22;14253;44.840;10.444;2023-02-25T00:43:10;10.30;99.90
26621;DHT22;14253;44.840;10.444;2023-02-25T00:45:38;10.10;99.90
26621;DHT22;14253;44.840;10.444;2023-02-25T00:48:05;10.20;99.90
26621;DHT22;14253;44.840;10.444;2023-02-25T00:50:31;10.10;99.90
26621;DHT22;14253;44.840;10.444;2023-02-25T00:52:57;10.10;99.90
26621;DHT22;14253;44.840;10.444;2023-02-25T00:55:23;10.10;99.90
26621;DHT22;14253;44.840;10.444;2023-02-25T00:57:49;10.10;99.90
26621;DHT22;14253;44.840;10.444;2023-02-25T01:00:15;10.10;99.90
26621;DHT22;14253;44.840;10.444;2023-02-25T01:02:42;10.10;99.90
26621;DHT22;14253;44.840;10.444;2023-02-25T01:05:13;10.00;99.90
26621;DHT22;14253;44.840;10.444;2023-02-25T01:07:40;10.00;99.90
26621;DHT22;14253;44.840;10.444;2023-02-25T01:10:07;10.10;99.90
26621;DHT22;14253;44.840;10.444;2023-02-25T01:12:35;10.00;99.90
26621;DHT22;14253;44.840;10.444;2023-02-25T01:15:01;10.00;99.90
26621;DHT22;14253;44.840;10.444;2023-02-25T01:17:27;10.00;99.90
26621;DHT22;14253;44.840;10.444;2023-02-25T01:19:54;10.00;99.90
26621;DHT22;14253;44.840;10.444;2023-02-25T01:22:22;9.90;99.90
26621;DHT22;14253;44.840;10.444;2023-02-25T01:24:48;9.90;99.90
26621;DHT22;14253;44.840;10.444;2023-02-25T01:27:14;9.90;99.90
26621;DHT22;14253;44.840;10.444;2023-02-25T01:29:42;9.90;99.90
26621;DHT22;14253;44.840;10.444;2023-02-25T01:32:10;9.80;99.90
26621;DHT22;14253;44.840;10.444;2023-02-25T01:34:39;9.80;99.90
26621;DHT22;14253;44.840;10.444;2023-02-25T01:37:07;9.80;99.90
26621;DHT22;14253;44.840;10.444;2023-02-25T01:39:35;9.80;99.90
26621;DHT22;14253;44.840;10.444;2023-02-25T01:42:03;9.80;99.90
26621;DHT22;14253;44.840;10.444;2023-02-25T01:44:33;9.70;1.00
26621;DHT22;14253;44.840;10.444;2023-02-25T01:46:59;9.80;1.00
26621;DHT22;14253;44.840;10.444;2023-02-25T01:49:33;9.70;1.00
26621;DHT22;14253;44.840;10.444;2023-02-25T01:52:10;9.70;1.00
26621;DHT22;14253;44.840;10.444;2023-02-25T01:54:37;9.70;1.00
26621;DHT22;14253;44.840;10.444;2023-02-25T01:57:09;9.70;1.00
26621;DHT22;14253;44.840;10.444;2023-02-25T01:59:37;9.70;1.00
26621;DHT22;14253;44.840;10.444;2023-02-25T02:02:03;9.70;1.00
26621;DHT22;14253;44.840;10.444;2023-02-25T02:04:30;9.70;1.00
26621;DHT22;14253;44.840;10.444;2023-02-25T02:06:56;9.70;1.00
26621;DHT22;14253;44.840;10.444;2023-02-25T02:09:26;9.70;1.00
26621;DHT22;14253;44.840;10.444;2023-02-25T02:11:55;9.70;1.00
26621;DHT22;14253;44.840;10.444;2023-02-25T02:14:27;9.70;1.00
26621;DHT22;14253;44.840;10.444;2023-02-25T02:27:52;9.40;1.00
26621;DHT22;14253;44.840;10.444;2023-02-25T02:36:03;9.40;1.00
26621;DHT22;14253;44.840;10.444;2023-02-25T02:38:50;9.30;1.00
26621;DHT22;14253;44.840;10.444;2023-02-25T02:41:34;9.30;1.00
26621;DHT22;14253;44.840;10.444;2023-02-25T02:44:17;9.20;1.00
26621;DHT22;14253;44.840;10.444;2023-02-25T02:46:54;9.10;1.00
26621;DHT22;14253;44.840;10.444;2023-02-25T02:49:54;9.00;1.00
26621;DHT22;14253;44.840;10.444;2023-02-25T02:52:28;9.00;1.00
26621;DHT22;14253;44.840;10.444;2023-02-25T02:55:04;8.80;1.00
26621;DHT22;14253;44.840;10.444;2023-02-25T02:57:33;8.70;1.00
26621;DHT22;14253;44.840;10.444;2023-02-25T03:00:08;8.60;1.00
26621;DHT22;14253;44.840;10.444;2023-02-25T03:02:58;8.60;1.00
26621;DHT22;14253;44.840;10.444;2023-02-25T03:05:27;8.60;1.00
26621;DHT22;14253;44.840;10.444;2023-02-25T03:08:15;8.60;1.00
26621;DHT22;14253;44.840;10.444;2023-02-25T03:10:45;8.60;1.00
26621;DHT22;14253;44.840;10.444;2023-02-25T03:13:11;8.60;1.00
26621;DHT22;14253;44.840;10.444;2023-02-25T03:15:40;8.60;1.00
26621;DHT22;14253;44.840;10.444;2023-02-25T03:18:14;8.50;1.00
26621;DHT22;14253;44.840;10.444;2023-02-25T03:20:46;8.40;1.00
26621;DHT22;14253;44.840;10.444;2023-02-25T03:23:19;8.40;1.00
26621;DHT22;14253;44.840;10.444;2023-02-25T03:25:50;8.40;1.00
26621;DHT22;14253;44.840;10.444;2023-02-25T03:28:31;8.40;1.00
26621;DHT22;14253;44.840;10.444;2023-02-25T03:33:42;8.30;1.00
26621;DHT22;14253;44.840;10.444;2023-02-25T03:36:24;8.20;1.00
26621;DHT22;14253;44.840;10.444;2023-02-25T03:38:56;8.20;1.00
26621;DHT22;14253;44.840;10.444;2023-02-25T03:41:29;8.10;1.00
26621;DHT22;14253;44.840;10.444;2023-02-25T03:44:01;8.10;1.00
26621;DHT22;14253;44.840;10.444;2023-02-25T03:46:31;8.10;1.00
26621;DHT22;14253;44.840;10.444;2023-02-25T03:49:00;8.10;1.00
26621;DHT22;14253;44.840;10.444;2023-02-25T03:51:32;8.10;1.00
26621;DHT22;14253;44.840;10.444;2023-02-25T03:53:58;8.10;1.00
26621;DHT22;14253;44.840;10.444;2023-02-25T03:56:35;8.10;1.00
26621;DHT22;14253;44.840;10.444;2023-02-25T03:59:04;8.10;1.00
26621;DHT22;14253;44.840;10.444;2023-02-25T04:01:30;8.10;1.00
26621;DHT22;14253;44.840;10.444;2023-02-25T04:03:56;8.10;1.00
26621;DHT22;14253;44.840;10.444;2023-02-25T04:06:23;8.10;1.00
26621;DHT22;14253;44.840;10.444;2023-02-25T04:08:50;8.10;1.00
26621;DHT22;14253;44.840;10.444;2023-02-25T04:11:16;8.00;1.00
26621;DHT22;14253;44.840;10.444;2023-02-25T04:13:44;8.00;1.00
26621;DHT22;14253;44.840;10.444;2023-02-25T04:16:10;8.00;1.00
26621;DHT22;14253;44.840;10.444;2023-02-25T04:18:36;7.90;1.00
26621;DHT22;14253;44.840;10.444;2023-02-25T04:21:08;7.90;1.00
26621;DHT22;14253;44.840;10.444;2023-02-25T04:23:35;7.90;1.00
26621;DHT22;14253;44.840;10.444;2023-02-25T04:26:01;7.90;1.00
26621;DHT22;14253;44.840;10.444;2023-02-25T04:28:27;7.90;1.00
26621;DHT22;14253;44.840;10.444;2023-02-25T04:30:53;7.90;1.00
26621;DHT22;14253;44.840;10.444;2023-02-25T04:33:19;8.00;1.00
26621;DHT22;14253;44.840;10.444;2023-02-25T04:35:44;8.00;1.00
26621;DHT22;14253;44.840;10.444;2023-02-25T04:38:10;8.10;1.00
26621;DHT22;14253;44.840;10.444;2023-02-25T04:40:37;8.10;1.00
26621;DHT22;14253;44.840;10.444;2023-02-25T04:43:02;8.10;1.00
26621;DHT22;14253;44.840;10.444;2023-02-25T04:45:28;8.10;1.00
26621;DHT22;14253;44.840;10.444;2023-02-25T04:47:55;8.10;1.00
26621;DHT22;14253;44.840;10.444;2023-02-25T04:50:25;8.20;1.00
26621;DHT22;14253;44.840;10.444;2023-02-25T04:52:51;8.10;1.00
26621;DHT22;14253;44.840;10.444;2023-02-25T04:55:16;8.10;1.00
26621;DHT22;14253;44.840;10.444;2023-02-25T04:57:43;8.10;1.00
26621;DHT22;14253;44.840;10.444;2023-02-25T05:00:13;8.00;1.00
26621;DHT22;14253;44.840;10.444;2023-02-25T05:02:41;8.10;1.00
26621;DHT22;14253;44.840;10.444;2023-02-25T05:05:08;8.00;1.00
26621;DHT22;14253;44.840;10.444;2023-02-25T05:07:34;8.00;1.00
26621;DHT22;14253;44.840;10.444;2023-02-25T05:10:00;8.10;1.00
26621;DHT22;14253;44.840;10.444;2023-02-25T05:12:26;8.10;1.00
26621;DHT22;14253;44.840;10.444;2023-02-25T05:14:52;8.00;1.00
26621;DHT22;14253;44.840;10.444;2023-02-25T05:17:18;8.00;1.00
26621;DHT22;14253;44.840;10.444;2023-02-25T05:19:44;8.00;1.00
26621;DHT22;14253;44.840;10.444;2023-02-25T05:22:09;8.00;1.00
26621;DHT22;14253;44.840;10.444;2023-02-25T05:24:35;8.00;1.00
26621;DHT22;14253;44.840;10.444;2023-02-25T05:27:01;7.90;1.00
26621;DHT22;14253;44.840;10.444;2023-02-25T05:29:34;7.80;1.00
26621;DHT22;14253;44.840;10.444;2023-02-25T05:32:01;7.80;1.00
26621;DHT22;14253;44.840;10.444;2023-02-25T05:34:27;7.90;1.00
26621;DHT22;14253;44.840;10.444;2023-02-25T05:36:53;7.90;1.00
26621;DHT22;14253;44.840;10.444;2023-02-25T05:39:19;7.90;1.00
26621;DHT22;14253;44.840;10.444;2023-02-25T05:41:45;7.90;1.00
26621;DHT22;14253;44.840;10.444;2023-02-25T05:44:11;8.00;1.00
26621;DHT22;14253;44.840;10.444;2023-02-25T05:46:36;8.00;1.00
26621;DHT22;14253;44.840;10.444;2023-02-25T05:49:02;8.00;1.00
26621;DHT22;14253;44.840;10.444;2023-02-25T05:51:28;8.10;1.00
26621;DHT22;14253;44.840;10.444;2023-02-25T05:53:55;8.10;1.00
26621;DHT22;14253;44.840;10.444;2023-02-25T05:56:24;8.10;1.00
26621;DHT22;14253;44.840;10.444;2023-02-25T05:58:50;8.10;1.00
26621;DHT22;14253;44.840;10.444;2023-02-25T06:01:18;8.10;1.00
26621;DHT22;14253;44.840;10.444;2023-02-25T06:03:46;8.00;1.00
26621;DHT22;14253;44.840;10.444;2023-02-25T06:06:13;8.00;1.00
26621;DHT22;14253;44.840;10.444;2023-02-25T06:08:41;8.10;1.00
26621;DHT22;14253;44.840;10.444;2023-02-25T06:11:09;8.10;1.00
26621;DHT22;14253;44.840;10.444;2023-02-25T06:13:35;8.00;1.00
26621;DHT22;14253;44.840;10.444;2023-02-25T06:16:03;7.90;1.00
26621;DHT22;14253;44.840;10.444;2023-02-25T06:18:30;7.90;1.00
26621;DHT22;14253;44.840;10.444;2023-02-25T06:21:09;7.80;1.00
26621;DHT22;14253;44.840;10.444;2023-02-25T06:23:37;7.80;1.00
26621;DHT22;14253;44.840;10.444;2023-02-25T06:26:05;7.90;1.00
26621;DHT22;14253;44.840;10.444;2023-02-25T06:28:33;7.90;1.00
26621;DHT22;14253;44.840;10.444;2023-02-25T06:30:59;7.80;1.00
26621;DHT22;14253;44.840;10.444;2023-02-25T06:33:25;7.80;1.00
26621;DHT22;14253;44.840;10.444;2023-02-25T06:35:54;7.80;1.00
26621;DHT22;14253;44.840;10.444;2023-02-25T06:38:20;7.80;1.00
26621;DHT22;14253;44.840;10.444;2023-02-25T06:40:47;7.90;1.00
26621;DHT22;14253;44.840;10.444;2023-02-25T06:43:17;8.00;1.00
26621;DHT22;14253;44.840;10.444;2023-02-25T06:45:43;8.00;1.00
26621;DHT22;14253;44.840;10.444;2023-02-25T06:48:09;8.00;1.00
26621;DHT22;14253;44.840;10.444;2023-02-25T06:50:38;8.10;1.00
26621;DHT22;14253;44.840;10.444;2023-02-25T06:53:05;8.10;1.00
26621;DHT22;14253;44.840;10.444;2023-02-25T06:55:33;8.10;1.00
26621;DHT22;14253;44.840;10.444;2023-02-25T06:57:59;8.10;1.00
26621;DHT22;14253;44.840;10.444;2023-02-25T07:00:30;8.10;1.00
26621;DHT22;14253;44.840;10.444;2023-02-25T07:02:56;8.20;1.00
26621;DHT22;14253;44.840;10.444;2023-02-25T07:05:23;8.20;1.00
26621;DHT22;14253;44.840;10.444;2023-02-25T07:07:51;8.20;1.00
26621;DHT22;14253;44.840;10.444;2023-02-25T07:10:17;8.30;1.00
26621;DHT22;14253;44.840;10.444;2023-02-25T07:12:43;8.30;1.00
26621;DHT22;14253;44.840;10.444;2023-02-25T07:15:09;8.40;1.00
26621;DHT22;14253;44.840;10.444;2023-02-25T07:17:38;8.40;1.00
26621;DHT22;14253;44.840;10.444;2023-02-25T07:20:04;8.50;1.00
26621;DHT22;14253;44.840;10.444;2023-02-25T07:22:30;8.50;1.00
26621;DHT22;14253;44.840;10.444;2023-02-25T07:24:56;8.60;1.00
26621;DHT22;14253;44.840;10.444;2023-02-25T07:27:22;8.60;1.00
26621;DHT22;14253;44.840;10.444;2023-02-25T07:29:49;8.70;1.00
26621;DHT22;14253;44.840;10.444;2023-02-25T07:32:15;8.80;1.00
26621;DHT22;14253;44.840;10.444;2023-02-25T07:34:43;8.80;1.00
26621;DHT22;14253;44.840;10.444;2023-02-25T07:37:09;8.90;1.00
26621;DHT22;14253;44.840;10.444;2023-02-25T07:39:37;9.00;1.00
26621;DHT22;14253;44.840;10.444;2023-02-25T07:42:03;9.10;1.00
26621;DHT22;14253;44.840;10.444;2023-02-25T07:44:29;9.10;1.00
26621;DHT22;14253;44.840;10.444;2023-02-25T07:46:56;9.30;1.00
26621;DHT22;14253;44.840;10.444;2023-02-25T07:49:21;9.40;1.00
26621;DHT22;14253;44.840;10.444;2023-02-25T07:51:54;9.40;1.00
26621;DHT22;14253;44.840;10.444;2023-02-25T07:54:19;9.50;1.00
26621;DHT22;14253;44.840;10.444;2023-02-25T07:56:47;9.60;1.00
26621;DHT22;14253;44.840;10.444;2023-02-25T07:59:16;9.70;1.00
26621;DHT22;14253;44.840;10.444;2023-02-25T08:01:42;9.70;1.00
26621;DHT22;14253;44.840;10.444;2023-02-25T08:04:09;9.80;1.00
26621;DHT22;14253;44.840;10.444;2023-02-25T08:06:36;9.90;1.00
26621;DHT22;14253;44.840;10.444;2023-02-25T08:09:04;10.00;1.00
26621;DHT22;14253;44.840;10.444;2023-02-25T08:11:31;10.10;1.00
26621;DHT22;14253;44.840;10.444;2023-02-25T08:13:59;10.20;1.00
26621;DHT22;14253;44.840;10.444;2023-02-25T08:16:25;10.30;99.90
26621;DHT22;14253;44.840;10.444;2023-02-25T08:18:51;10.40;99.90
26621;DHT22;14253;44.840;10.444;2023-02-25T08:21:19;10.50;99.90
26621;DHT22;14253;44.840;10.444;2023-02-25T08:23:51;10.50;99.90
26621;DHT22;14253;44.840;10.444;2023-02-25T08:26:18;10.60;99.90
26621;DHT22;14253;44.840;10.444;2023-02-25T08:28:47;10.70;99.90
26621;DHT22;14253;44.840;10.444;2023-02-25T08:31:13;10.70;99.90
26621;DHT22;14253;44.840;10.444;2023-02-25T08:33:42;10.80;99.90
26621;DHT22;14253;44.840;10.444;2023-02-25T08:36:23;10.90;99.90
26621;DHT22;14253;44.840;10.444;2023-02-25T08:38:50;11.10;99.90
26621;DHT22;14253;44.840;10.444;2023-02-25T08:41:18;11.30;99.90
26621;DHT22;14253;44.840;10.444;2023-02-25T08:43:47;11.40;99.90
26621;DHT22;14253;44.840;10.444;2023-02-25T08:46:14;11.50;99.90
26621;DHT22;14253;44.840;10.444;2023-02-25T08:48:40;11.60;99.90
26621;DHT22;14253;44.840;10.444;2023-02-25T08:51:07;11.60;99.90
26621;DHT22;14253;44.840;10.444;2023-02-25T08:53:38;11.60;99.90
26621;DHT22;14253;44.840;10.444;2023-02-25T08:56:06;11.80;99.90
26621;DHT22;14253;44.840;10.444;2023-02-25T08:58:32;12.00;99.90
26621;DHT22;14253;44.840;10.444;2023-02-25T09:00:58;12.10;99.90
26621;DHT22;14253;44.840;10.444;2023-02-25T09:03:24;12.20;99.90
26621;DHT22;14253;44.840;10.444;2023-02-25T09:05:54;12.30;99.90
26621;DHT22;14253;44.840;10.444;2023-02-25T09:08:21;12.40;99.90
26621;DHT22;14253;44.840;10.444;2023-02-25T09:10:47;12.50;99.90
26621;DHT22;14253;44.840;10.444;2023-02-25T09:13:13;12.60;99.90
26621;DHT22;14253;44.840;10.444;2023-02-25T09:15:39;12.70;99.90
26621;DHT22;14253;44.840;10.444;2023-02-25T09:18:05;12.70;99.90
26621;DHT22;14253;44.840;10.444;2023-02-25T09:20:31;12.90;99.90
26621;DHT22;14253;44.840;10.444;2023-02-25T09:22:59;12.90;99.90
26621;DHT22;14253;44.840;10.444;2023-02-25T09:25:26;12.90;99.90
26621;DHT22;14253;44.840;10.444;2023-02-25T09:27:53;13.00;99.90
26621;DHT22;14253;44.840;10.444;2023-02-25T09:30:19;13.10;99.90
26621;DHT22;14253;44.840;10.444;2023-02-25T09:32:45;13.20;99.90
26621;DHT22;14253;44.840;10.444;2023-02-25T09:35:11;13.30;99.90
26621;DHT22;14253;44.840;10.444;2023-02-25T09:37:37;13.60;99.90
26621;DHT22;14253;44.840;10.444;2023-02-25T09:40:04;13.70;99.90
26621;DHT22;14253;44.840;10.444;2023-02-25T09:45:22;14.10;99.90
26621;DHT22;14253;44.840;10.444;2023-02-25T09:47:59;14.10;99.90
26621;DHT22;14253;44.840;10.444;2023-02-25T09:50:35;14.20;99.90
26621;DHT22;14253;44.840;10.444;2023-02-25T09:53:16;14.20;99.90
26621;DHT22;14253;44.840;10.444;2023-02-25T09:55:47;14.40;99.90
26621;DHT22;14253;44.840;10.444;2023-02-25T09:58:23;14.40;99.90
26621;DHT22;14253;44.840;10.444;2023-02-25T10:00:57;14.40;99.90
26621;DHT22;14253;44.840;10.444;2023-02-25T10:03:44;14.30;99.90
26621;DHT22;14253;44.840;10.444;2023-02-25T10:06:38;14.20;99.90
26621;DHT22;14253;44.840;10.444;2023-02-25T10:12:06;14.30;99.90
26621;DHT22;14253;44.840;10.444;2023-02-25T10:15:07;14.30;99.90
26621;DHT22;14253;44.840;10.444;2023-02-25T10:26:38;15.00;99.90
26621;DHT22;14253;44.840;10.444;2023-02-25T10:29:12;15.10;99.90
26621;DHT22;14253;44.840;10.444;2023-02-25T10:31:41;15.20;99.90
26621;DHT22;14253;44.840;10.444;2023-02-25T10:34:26;15.20;99.90
26621;DHT22;14253;44.840;10.444;2023-02-25T10:36:58;15.20;99.90
26621;DHT22;14253;44.840;10.444;2023-02-25T10:39:25;15.20;99.90
26621;DHT22;14253;44.840;10.444;2023-02-25T10:41:52;15.30;99.90
26621;DHT22;14253;44.840;10.444;2023-02-25T10:44:18;15.20;99.90
26621;DHT22;14253;44.840;10.444;2023-02-25T10:46:57;15.10;99.90
26621;DHT22;14253;44.840;10.444;2023-02-25T10:49:27;15.00;99.90
26621;DHT22;14253;44.840;10.444;2023-02-25T10:52:14;15.10;99.90
26621;DHT22;14253;44.840;10.444;2023-02-25T10:54:51;15.20;99.90
26621;DHT22;14253;44.840;10.444;2023-02-25T10:57:33;15.20;99.90
26621;DHT22;14253;44.840;10.444;2023-02-25T11:00:28;15.10;99.90
26621;DHT22;14253;44.840;10.444;2023-02-25T11:02:56;14.90;99.90
26621;DHT22;14253;44.840;10.444;2023-02-25T11:05:41;14.80;99.90
26621;DHT22;14253;44.840;10.444;2023-02-25T11:11:03;14.70;99.90
26621;DHT22;14253;44.840;10.444;2023-02-25T11:13:33;14.70;99.90
26621;DHT22;14253;44.840;10.444;2023-02-25T11:16:04;14.70;99.90
26621;DHT22;14253;44.840;10.444;2023-02-25T11:18:31;14.70;99.90
26621;DHT22;14253;44.840;10.444;2023-02-25T11:21:00;14.80;99.90
26621;DHT22;14253;44.840;10.444;2023-02-25T11:26:07;14.80;99.90
26621;DHT22;14253;44.840;10.444;2023-02-25T11:28:43;14.80;99.90
26621;DHT22;14253;44.840;10.444;2023-02-25T11:31:23;14.80;99.90
26621;DHT22;14253;44.840;10.444;2023-02-25T11:33:57;14.80;99.90
26621;DHT22;14253;44.840;10.444;2023-02-25T11:36:29;14.80;99.90
26621;DHT22;14253;44.840;10.444;2023-02-25T11:39:03;14.90;99.90
26621;DHT22;14253;44.840;10.444;2023-02-25T11:41:30;14.90;99.90
26621;DHT22;14253;44.840;10.444;2023-02-25T11:44:16;14.90;99.90
26621;DHT22;14253;44.840;10.444;2023-02-25T11:46:52;14.90;99.90
26621;DHT22;14253;44.840;10.444;2023-02-25T11:49:40;14.90;99.90
26621;DHT22;14253;44.840;10.444;2023-02-25T11:52:24;14.90;99.90
26621;DHT22;14253;44.840;10.444;2023-02-25T11:57:37;15.00;99.90
26621;DHT22;14253;44.840;10.444;2023-02-25T12:00:24;15.10;99.90
26621;DHT22;14253;44.840;10.444;2023-02-25T12:36:25;16.10;99.90
26621;DHT22;14253;44.840;10.444;2023-02-25T12:46:54;15.70;99.90
26621;DHT22;14253;44.840;10.444;2023-02-25T12:49:57;15.60;99.90
26621;DHT22;14253;44.840;10.444;2023-02-25T12:58:18;15.60;99.90
26621;DHT22;14253;44.840;10.444;2023-02-25T13:03:51;15.60;99.90
26621;DHT22;14253;44.840;10.444;2023-02-25T13:15:15;15.60;99.90
26621;DHT22;14253;44.840;10.444;2023-02-25T13:20:49;15.70;99.90
26621;DHT22;14253;44.840;10.444;2023-02-25T13:23:31;15.80;99.90
26621;DHT22;14253;44.840;10.444;2023-02-25T13:26:35;15.90;99.90
26621;DHT22;14253;44.840;10.444;2023-02-25T13:32:04;16.20;99.90
26621;DHT22;14253;44.840;10.444;2023-02-25T13:38:26;16.40;99.90
26621;DHT22;14253;44.840;10.444;2023-02-25T14:00:19;16.90;99.90
26621;DHT22;14253;44.840;10.444;2023-02-25T14:06:00;16.60;99.90
26621;DHT22;14253;44.840;10.444;2023-02-25T14:08:54;16.50;99.90
26621;DHT22;14253;44.840;10.444;2023-02-25T14:22:33;16.30;99.90
26621;DHT22;14253;44.840;10.444;2023-02-25T14:41:45;15.90;99.90
26621;DHT22;14253;44.840;10.444;2023-02-25T14:44:58;15.90;99.90
26621;DHT22;14253;44.840;10.444;2023-02-25T14:47:25;15.90;99.90
26621;DHT22;14253;44.840;10.444;2023-02-25T14:50:06;15.90;99.90
26621;DHT22;14253;44.840;10.444;2023-02-25T14:55:57;15.80;99.90
26621;DHT22;14253;44.840;10.444;2023-02-25T15:16:37;15.90;99.90
26621;DHT22;14253;44.840;10.444;2023-02-25T15:22:16;16.00;99.90
26621;DHT22;14253;44.840;10.444;2023-02-25T15:24:46;15.90;99.90
26621;DHT22;14253;44.840;10.444;2023-02-25T15:30:09;15.80;99.90
26621;DHT22;14253;44.840;10.444;2023-02-25T15:33:04;15.70;99.90
26621;DHT22;14253;44.840;10.444;2023-02-25T15:43:35;15.30;99.90
26621;DHT22;14253;44.840;10.444;2023-02-25T15:48:38;15.30;99.90
26621;DHT22;14253;44.840;10.444;2023-02-25T15:51:11;15.20;99.90
26621;DHT22;14253;44.840;10.444;2023-02-25T15:53:56;15.10;99.90
26621;DHT22;14253;44.840;10.444;2023-02-25T15:56:27;15.00;99.90
26621;DHT22;14253;44.840;10.444;2023-02-25T15:58:58;14.90;99.90
26621;DHT22;14253;44.840;10.444;2023-02-25T16:01:40;14.90;99.90
26621;DHT22;14253;44.840;10.444;2023-02-25T16:07:06;14.70;99.90
26621;DHT22;14253;44.840;10.444;2023-02-25T16:09:33;14.70;99.90
26621;DHT22;14253;44.840;10.444;2023-02-25T16:12:06;14.60;99.90
26621;DHT22;14253;44.840;10.444;2023-02-25T16:14:38;14.60;99.90
26621;DHT22;14253;44.840;10.444;2023-02-25T16:19:49;14.50;99.90
26621;DHT22;14253;44.840;10.444;2023-02-25T16:22:20;14.40;99.90
26621;DHT22;14253;44.840;10.444;2023-02-25T16:24:49;14.30;99.90
26621;DHT22;14253;44.840;10.444;2023-02-25T16:28:02;14.30;99.90
26621;DHT22;14253;44.840;10.444;2023-02-25T16:33:07;14.10;99.90
26621;DHT22;14253;44.840;10.444;2023-02-25T16:35:43;14.10;99.90
26621;DHT22;14253;44.840;10.444;2023-02-25T16:38:33;14.00;99.90
26621;DHT22;14253;44.840;10.444;2023-02-25T16:41:02;14.00;99.90
26621;DHT22;14253;44.840;10.444;2023-02-25T16:43:30;14.00;99.90
26621;DHT22;14253;44.840;10.444;2023-02-25T16:45:58;13.90;99.90
26621;DHT22;14253;44.840;10.444;2023-02-25T16:48:52;13.90;99.90
26621;DHT22;14253;44.840;10.444;2023-02-25T16:51:25;13.80;99.90
26621;DHT22;14253;44.840;10.444;2023-02-25T16:54:02;13.80;99.90
26621;DHT22;14253;44.840;10.444;2023-02-25T16:56:30;13.70;99.90
26621;DHT22;14253;44.840;10.444;2023-02-25T16:59:00;13.70;99.90
26621;DHT22;14253;44.840;10.444;2023-02-25T17:01:31;13.70;99.90
26621;DHT22;14253;44.840;10.444;2023-02-25T17:06:42;13.60;99.90
26621;DHT22;14253;44.840;10.444;2023-02-25T17:09:21;13.60;99.90
26621;DHT22;14253;44.840;10.444;2023-02-25T17:11:54;13.50;99.90
26621;DHT22;14253;44.840;10.444;2023-02-25T17:14:21;13.50;99.90
26621;DHT22;14253;44.840;10.444;2023-02-25T17:16:48;13.50;99.90
26621;DHT22;14253;44.840;10.444;2023-02-25T17:19:17;13.50;99.90
26621;DHT22;14253;44.840;10.444;2023-02-25T17:21:51;13.50;99.90
26621;DHT22;14253;44.840;10.444;2023-02-25T17:24:25;13.50;99.90
26621;DHT22;14253;44.840;10.444;2023-02-25T17:26:55;13.50;99.90
26621;DHT22;14253;44.840;10.444;2023-02-25T17:29:31;13.50;99.90
26621;DHT22;14253;44.840;10.444;2023-02-25T17:31:59;13.50;99.90
26621;DHT22;14253;44.840;10.444;2023-02-25T17:34:30;13.50;99.90
26621;DHT22;14253;44.840;10.444;2023-02-25T17:37:01;13.50;99.90
26621;DHT22;14253;44.840;10.444;2023-02-25T17:39:28;13.40;99.90
26621;DHT22;14253;44.840;10.444;2023-02-25T17:41:55;13.50;99.90
26621;DHT22;14253;44.840;10.444;2023-02-25T17:47:09;13.40;99.90
26621;DHT22;14253;44.840;10.444;2023-02-25T17:49:36;13.40;99.90
26621;DHT22;14253;44.840;10.444;2023-02-25T17:52:23;13.40;99.90
26621;DHT22;14253;44.840;10.444;2023-02-25T17:55:20;13.30;99.90
26621;DHT22;14253;44.840;10.444;2023-02-25T17:57:46;13.30;99.90
26621;DHT22;14253;44.840;10.444;2023-02-25T18:00:29;13.30;99.90
26621;DHT22;14253;44.840;10.444;2023-02-25T18:03:16;13.30;99.90
26621;DHT22;14253;44.840;10.444;2023-02-25T18:05:59;13.30;99.90
26621;DHT22;14253;44.840;10.444;2023-02-25T18:08:29;13.30;99.90
26621;DHT22;14253;44.840;10.444;2023-02-25T18:11:11;13.20;99.90
26621;DHT22;14253;44.840;10.444;2023-02-25T18:13:45;13.30;99.90
26621;DHT22;14253;44.840;10.444;2023-02-25T18:18:57;13.20;99.90
26621;DHT22;14253;44.840;10.444;2023-02-25T18:21:24;13.20;99.90
26621;DHT22;14253;44.840;10.444;2023-02-25T18:23:51;13.10;99.90
26621;DHT22;14253;44.840;10.444;2023-02-25T18:26:20;13.10;99.90
26621;DHT22;14253;44.840;10.444;2023-02-25T18:28:49;13.00;99.90
26621;DHT22;14253;44.840;10.444;2023-02-25T18:31:16;12.90;99.90
26621;DHT22;14253;44.840;10.444;2023-02-25T18:33:45;12.90;99.90
26621;DHT22;14253;44.840;10.444;2023-02-25T18:36:20;12.80;99.90
26621;DHT22;14253;44.840;10.444;2023-02-25T18:38:48;12.70;99.90
26621;DHT22;14253;44.840;10.444;2023-02-25T18:41:14;12.70;99.90
26621;DHT22;14253;44.840;10.444;2023-02-25T18:43:41;12.70;99.90
26621;DHT22;14253;44.840;10.444;2023-02-25T18:46:08;12.60;99.90
26621;DHT22;14253;44.840;10.444;2023-02-25T18:48:34;12.60;99.90
26621;DHT22;14253;44.840;10.444;2023-02-25T18:51:02;12.50;99.90
26621;DHT22;14253;44.840;10.444;2023-02-25T18:53:30;12.50;99.90
26621;DHT22;14253;44.840;10.444;2023-02-25T18:55:56;12.50;99.90
26621;DHT22;14253;44.840;10.444;2023-02-25T18:58:23;12.40;99.90
26621;DHT22;14253;44.840;10.444;2023-02-25T19:00:56;12.40;99.90
26621;DHT22;14253;44.840;10.444;2023-02-25T19:03:31;12.30;99.90
26621;DHT22;14253;44.840;10.444;2023-02-25T19:05:58;12.30;99.90
26621;DHT22;14253;44.840;10.444;2023-02-25T19:08:24;12.20;99.90
26621;DHT22;14253;44.840;10.444;2023-02-25T19:10:52;12.20;99.90
26621;DHT22;14253;44.840;10.444;2023-02-25T19:13:36;12.20;99.90
26621;DHT22;14253;44.840;10.444;2023-02-25T19:16:03;12.10;99.90
26621;DHT22;14253;44.840;10.444;2023-02-25T19:18:29;12.10;99.90
26621;DHT22;14253;44.840;10.444;2023-02-25T19:20:55;12.00;99.90
26621;DHT22;14253;44.840;10.444;2023-02-25T19:23:21;12.00;99.90
26621;DHT22;14253;44.840;10.444;2023-02-25T19:25:52;12.00;99.90